sensor_id;sensor_type;location;lat;lon;timestamp;P1;durP1;ratioP1;P2;durP2;ratioP2
20022;SDS011;10172;42.054;24.546;2024-03-25T00:02:05;11.50;;;8.77;;
20022;SDS011;10172;42.054;24.546;2024-03-25T00:04:30;13.38;;;8.63;;
20022;SDS011;10172;42.054;24.546;2024-03-25T00:06:55;9.10;;;5.78;;
20022;SDS011;10172;42.054;24.546;2024-03-25T00:09:22;14.90;;;9.73;;
20022;SDS011;10172;42.054;24.546;2024-03-25T00:11:47;10.23;;;5.88;;
20022;SDS011;10172;42.054;24.546;2024-03-25T00:14:13;12.80;;;9.25;;
20022;SDS011;10172;42.054;24.546;2024-03-25T00:16:38;13.95;;;9.95;;
20022;SDS011;10172;42.054;24.546;2024-03-25T00:19:03;13.43;;;9.52;;
20022;SDS011;10172;42.054;24.546;2024-03-25T00:21:29;14.38;;;10.82;;
20022;SDS011;10172;42.054;24.546;2024-03-25T00:23:54;15.05;;;10.27;;
20022;SDS011;10172;42.054;24.546;2024-03-25T00:26:22;14.63;;;9.82;;
20022;SDS011;10172;42.054;24.546;2024-03-25T00:28:48;15.27;;;10.18;;
20022;SDS011;10172;42.054;24.546;2024-03-25T00:31:14;15.00;;;10.68;;
20022;SDS011;10172;42.054;24.546;2024-03-25T00:33:39;13.82;;;9.77;;
20022;SDS011;10172;42.054;24.546;2024-03-25T00:36:05;14.15;;;9.75;;
20022;SDS011;10172;42.054;24.546;2024-03-25T00:38:30;13.15;;;9.45;;
20022;SDS011;10172;42.054;24.546;2024-03-25T00:40:56;14.57;;;10.00;;
20022;SDS011;10172;42.054;24.546;2024-03-25T00:43:22;17.17;;;12.48;;
20022;SDS011;10172;42.054;24.546;2024-03-25T00:45:48;16.10;;;11.90;;
20022;SDS011;10172;42.054;24.546;2024-03-25T00:48:13;16.75;;;11.60;;
20022;SDS011;10172;42.054;24.546;2024-03-25T00:50:39;14.27;;;10.15;;
20022;SDS011;10172;42.054;24.546;2024-03-25T00:53:04;16.60;;;11.60;;
20022;SDS011;10172;42.054;24.546;2024-03-25T00:55:29;18.38;;;12.85;;
20022;SDS011;10172;42.054;24.546;2024-03-25T00:57:55;16.67;;;11.10;;
20022;SDS011;10172;42.054;24.546;2024-03-25T01:00:21;13.77;;;10.95;;
20022;SDS011;10172;42.054;24.546;2024-03-25T01:02:46;12.57;;;8.07;;
20022;SDS011;10172;42.054;24.546;2024-03-25T01:05:12;11.40;;;6.25;;
20022;SDS011;10172;42.054;24.546;2024-03-25T01:07:37;7.30;;;5.18;;
20022;SDS011;10172;42.054;24.546;2024-03-25T01:10:02;4.63;;;3.22;;
20022;SDS011;10172;42.054;24.546;2024-03-25T01:12:28;8.38;;;2.40;;
20022;SDS011;10172;42.054;24.546;2024-03-25T01:14:53;3.85;;;2.28;;
20022;SDS011;10172;42.054;24.546;2024-03-25T01:17:19;11.68;;;4.10;;
20022;SDS011;10172;42.054;24.546;2024-03-25T01:19:44;6.13;;;3.08;;
20022;SDS011;10172;42.054;24.546;2024-03-25T01:22:10;2.38;;;1.13;;
20022;SDS011;10172;42.054;24.546;2024-03-25T01:24:35;0.98;;;0.45;;
20022;SDS011;10172;42.054;24.546;2024-03-25T01:27:01;1.75;;;0.30;;
20022;SDS011;10172;42.054;24.546;2024-03-25T01:29:26;0.55;;;0.45;;
20022;SDS011;10172;42.054;24.546;2024-03-25T01:31:52;2.40;;;0.50;;
20022;SDS011;10172;42.054;24.546;2024-03-25T01:34:17;0.93;;;0.25;;
20022;SDS011;10172;42.054;24.546;2024-03-25T01:36:42;1.00;;;0.40;;
20022;SDS011;10172;42.054;24.546;2024-03-25T01:39:08;0.20;;;0.20;;
20022;SDS011;10172;42.054;24.546;2024-03-25T01:41:34;0.43;;;0.30;;
20022;SDS011;10172;42.054;24.546;2024-03-25T01:44:00;0.20;;;0.20;;
20022;SDS011;10172;42.054;24.546;2024-03-25T01:46:27;0.17;;;0.10;;
20022;SDS011;10172;42.054;24.546;2024-03-25T01:48:52;0.43;;;0.43;;
20022;SDS011;10172;42.054;24.546;2024-03-25T01:51:18;0.68;;;0.50;;
20022;SDS011;10172;42.054;24.546;2024-03-25T01:53:46;0.40;;;0.40;;
20022;SDS011;10172;42.054;24.546;2024-03-25T01:56:12;0.98;;;0.45;;
20022;SDS011;10172;42.054;24.546;2024-03-25T01:58:40;2.83;;;0.98;;
20022;SDS011;10172;42.054;24.546;2024-03-25T02:01:05;0.95;;;0.52;;
20022;SDS011;10172;42.054;24.546;2024-03-25T02:03:33;0.70;;;0.50;;
20022;SDS011;10172;42.054;24.546;2024-03-25T02:05:59;0.82;;;0.50;;
20022;SDS011;10172;42.054;24.546;2024-03-25T02:08:27;0.40;;;0.40;;
20022;SDS011;10172;42.054;24.546;2024-03-25T02:10:54;0.77;;;0.40;;
20022;SDS011;10172;42.054;24.546;2024-03-25T02:13:20;1.17;;;0.40;;
20022;SDS011;10172;42.054;24.546;2024-03-25T02:15:46;1.20;;;0.22;;
20022;SDS011;10172;42.054;24.546;2024-03-25T02:18:12;0.43;;;0.20;;
20022;SDS011;10172;42.054;24.546;2024-03-25T02:20:37;0.52;;;0.30;;
20022;SDS011;10172;42.054;24.546;2024-03-25T02:23:03;1.08;;;0.40;;
20022;SDS011;10172;42.054;24.546;2024-03-25T02:25:29;0.20;;;0.20;;
20022;SDS011;10172;42.054;24.546;2024-03-25T02:27:57;0.20;;;0.20;;
20022;SDS011;10172;42.054;24.546;2024-03-25T02:30:23;0.20;;;0.20;;
20022;SDS011;10172;42.054;24.546;2024-03-25T02:32:48;0.30;;;0.30;;
20022;SDS011;10172;42.054;24.546;2024-03-25T02:35:15;0.57;;;0.20;;
20022;SDS011;10172;42.054;24.546;2024-03-25T02:37:41;0.20;;;0.20;;
20022;SDS011;10172;42.054;24.546;2024-03-25T02:40:07;0.20;;;0.20;;
20022;SDS011;10172;42.054;24.546;2024-03-25T02:42:34;1.02;;;0.25;;
20022;SDS011;10172;42.054;24.546;2024-03-25T02:45:02;0.20;;;0.20;;
20022;SDS011;10172;42.054;24.546;2024-03-25T02:47:28;0.38;;;0.30;;
20022;SDS011;10172;42.054;24.546;2024-03-25T02:49:53;0.40;;;0.35;;
20022;SDS011;10172;42.054;24.546;2024-03-25T02:52:19;6.32;;;3.20;;
20022;SDS011;10172;42.054;24.546;2024-03-25T02:54:46;1.92;;;0.70;;
20022;SDS011;10172;42.054;24.546;2024-03-25T02:57:11;0.22;;;0.22;;
20022;SDS011;10172;42.054;24.546;2024-03-25T02:59:36;0.30;;;0.20;;
20022;SDS011;10172;42.054;24.546;2024-03-25T03:02:02;1.13;;;0.30;;
20022;SDS011;10172;42.054;24.546;2024-03-25T03:04:27;0.50;;;0.30;;
20022;SDS011;10172;42.054;24.546;2024-03-25T03:06:52;0.50;;;0.20;;
20022;SDS011;10172;42.054;24.546;2024-03-25T03:09:18;0.47;;;0.40;;
20022;SDS011;10172;42.054;24.546;2024-03-25T03:11:43;0.95;;;0.40;;
20022;SDS011;10172;42.054;24.546;2024-03-25T03:14:09;0.38;;;0.30;;
20022;SDS011;10172;42.054;24.546;2024-03-25T03:16:34;1.42;;;0.40;;
20022;SDS011;10172;42.054;24.546;2024-03-25T03:18:59;0.82;;;0.30;;
20022;SDS011;10172;42.054;24.546;2024-03-25T03:21:25;0.43;;;0.30;;
20022;SDS011;10172;42.054;24.546;2024-03-25T03:23:50;0.95;;;0.28;;
20022;SDS011;10172;42.054;24.546;2024-03-25T03:26:16;0.65;;;0.20;;
20022;SDS011;10172;42.054;24.546;2024-03-25T03:28:41;0.22;;;0.20;;
20022;SDS011;10172;42.054;24.546;2024-03-25T03:31:07;0.30;;;0.20;;
20022;SDS011;10172;42.054;24.546;2024-03-25T03:33:33;0.40;;;0.30;;
20022;SDS011;10172;42.054;24.546;2024-03-25T03:35:58;0.30;;;0.28;;
20022;SDS011;10172;42.054;24.546;2024-03-25T03:38:23;0.65;;;0.30;;
20022;SDS011;10172;42.054;24.546;2024-03-25T03:41:02;1.85;;;1.17;;
20022;SDS011;10172;42.054;24.546;2024-03-25T03:43:28;7.50;;;3.50;;
20022;SDS011;10172;42.054;24.546;2024-03-25T03:45:53;3.53;;;1.70;;
20022;SDS011;10172;42.054;24.546;2024-03-25T03:48:19;2.03;;;1.30;;
20022;SDS011;10172;42.054;24.546;2024-03-25T03:50:45;1.20;;;0.80;;
20022;SDS011;10172;42.054;24.546;2024-03-25T03:53:10;2.60;;;0.90;;
20022;SDS011;10172;42.054;24.546;2024-03-25T03:55:36;0.50;;;0.40;;
20022;SDS011;10172;42.054;24.546;2024-03-25T03:58:01;1.80;;;1.10;;
20022;SDS011;10172;42.054;24.546;2024-03-25T04:00:27;2.42;;;1.30;;
20022;SDS011;10172;42.054;24.546;2024-03-25T04:02:52;1.10;;;0.50;;
20022;SDS011;10172;42.054;24.546;2024-03-25T04:05:18;0.88;;;0.60;;
20022;SDS011;10172;42.054;24.546;2024-03-25T04:07:43;0.10;;;0.10;;
20022;SDS011;10172;42.054;24.546;2024-03-25T04:10:09;0.98;;;0.40;;
20022;SDS011;10172;42.054;24.546;2024-03-25T04:12:35;0.70;;;0.30;;
20022;SDS011;10172;42.054;24.546;2024-03-25T04:15:02;0.40;;;0.40;;
20022;SDS011;10172;42.054;24.546;2024-03-25T04:17:27;0.43;;;0.20;;
20022;SDS011;10172;42.054;24.546;2024-03-25T04:19:53;0.90;;;0.50;;
20022;SDS011;10172;42.054;24.546;2024-03-25T04:22:18;0.70;;;0.40;;
20022;SDS011;10172;42.054;24.546;2024-03-25T04:24:44;0.63;;;0.40;;
20022;SDS011;10172;42.054;24.546;2024-03-25T04:27:09;0.32;;;0.30;;
20022;SDS011;10172;42.054;24.546;2024-03-25T04:29:35;1.48;;;0.40;;
20022;SDS011;10172;42.054;24.546;2024-03-25T04:32:00;0.20;;;0.20;;
20022;SDS011;10172;42.054;24.546;2024-03-25T04:34:27;0.50;;;0.50;;
20022;SDS011;10172;42.054;24.546;2024-03-25T04:36:52;0.40;;;0.38;;
20022;SDS011;10172;42.054;24.546;2024-03-25T04:39:18;0.38;;;0.38;;
20022;SDS011;10172;42.054;24.546;2024-03-25T04:41:44;0.20;;;0.20;;
20022;SDS011;10172;42.054;24.546;2024-03-25T04:44:09;0.50;;;0.50;;
20022;SDS011;10172;42.054;24.546;2024-03-25T04:46:34;1.25;;;1.00;;
20022;SDS011;10172;42.054;24.546;2024-03-25T04:49:00;1.38;;;0.40;;
20022;SDS011;10172;42.054;24.546;2024-03-25T04:51:25;1.02;;;0.93;;
20022;SDS011;10172;42.054;24.546;2024-03-25T04:53:51;3.25;;;2.55;;
20022;SDS011;10172;42.054;24.546;2024-03-25T04:56:18;0.60;;;0.50;;
20022;SDS011;10172;42.054;24.546;2024-03-25T04:58:43;0.60;;;0.60;;
20022;SDS011;10172;42.054;24.546;2024-03-25T05:01:09;1.40;;;0.80;;
20022;SDS011;10172;42.054;24.546;2024-03-25T05:03:34;1.25;;;0.57;;
20022;SDS011;10172;42.054;24.546;2024-03-25T05:05:59;0.50;;;0.50;;
20022;SDS011;10172;42.054;24.546;2024-03-25T05:08:25;1.02;;;0.90;;
20022;SDS011;10172;42.054;24.546;2024-03-25T05:10:50;2.22;;;1.38;;
20022;SDS011;10172;42.054;24.546;2024-03-25T05:13:15;0.90;;;0.77;;
20022;SDS011;10172;42.054;24.546;2024-03-25T05:15:41;0.93;;;0.80;;
20022;SDS011;10172;42.054;24.546;2024-03-25T05:18:14;0.70;;;0.70;;
20022;SDS011;10172;42.054;24.546;2024-03-25T05:20:39;1.00;;;0.82;;
20022;SDS011;10172;42.054;24.546;2024-03-25T05:23:05;2.45;;;1.00;;
20022;SDS011;10172;42.054;24.546;2024-03-25T05:25:30;0.65;;;0.57;;
20022;SDS011;10172;42.054;24.546;2024-03-25T05:27:56;1.10;;;0.60;;
20022;SDS011;10172;42.054;24.546;2024-03-25T05:30:21;0.52;;;0.40;;
20022;SDS011;10172;42.054;24.546;2024-03-25T05:32:48;3.42;;;0.98;;
20022;SDS011;10172;42.054;24.546;2024-03-25T05:35:13;1.67;;;0.95;;
20022;SDS011;10172;42.054;24.546;2024-03-25T05:37:39;0.75;;;0.70;;
20022;SDS011;10172;42.054;24.546;2024-03-25T05:40:04;1.48;;;0.90;;
20022;SDS011;10172;42.054;24.546;2024-03-25T05:42:30;1.23;;;0.82;;
20022;SDS011;10172;42.054;24.546;2024-03-25T05:44:55;1.98;;;1.10;;
20022;SDS011;10172;42.054;24.546;2024-03-25T05:47:20;0.70;;;0.60;;
20022;SDS011;10172;42.054;24.546;2024-03-25T05:49:46;2.10;;;0.85;;
20022;SDS011;10172;42.054;24.546;2024-03-25T05:52:12;3.60;;;1.65;;
20022;SDS011;10172;42.054;24.546;2024-03-25T05:54:37;1.08;;;0.80;;
20022;SDS011;10172;42.054;24.546;2024-03-25T05:57:03;2.53;;;1.00;;
20022;SDS011;10172;42.054;24.546;2024-03-25T05:59:28;3.05;;;1.00;;
20022;SDS011;10172;42.054;24.546;2024-03-25T06:01:54;3.30;;;1.70;;
20022;SDS011;10172;42.054;24.546;2024-03-25T06:04:19;2.95;;;1.20;;
20022;SDS011;10172;42.054;24.546;2024-03-25T06:06:45;3.72;;;1.88;;
20022;SDS011;10172;42.054;24.546;2024-03-25T06:09:10;7.03;;;3.28;;
20022;SDS011;10172;42.054;24.546;2024-03-25T06:11:35;2.10;;;0.40;;
20022;SDS011;10172;42.054;24.546;2024-03-25T06:14:01;1.38;;;1.05;;
20022;SDS011;10172;42.054;24.546;2024-03-25T06:16:26;3.58;;;1.73;;
20022;SDS011;10172;42.054;24.546;2024-03-25T06:18:53;5.65;;;3.42;;
20022;SDS011;10172;42.054;24.546;2024-03-25T06:21:18;4.25;;;2.25;;
20022;SDS011;10172;42.054;24.546;2024-03-25T06:23:43;16.77;;;7.60;;
20022;SDS011;10172;42.054;24.546;2024-03-25T06:26:09;11.07;;;5.53;;
20022;SDS011;10172;42.054;24.546;2024-03-25T06:28:34;5.30;;;2.42;;
20022;SDS011;10172;42.054;24.546;2024-03-25T06:31:00;12.02;;;5.75;;
20022;SDS011;10172;42.054;24.546;2024-03-25T06:33:43;2.38;;;1.20;;
20022;SDS011;10172;42.054;24.546;2024-03-25T06:36:27;5.18;;;2.75;;
20022;SDS011;10172;42.054;24.546;2024-03-25T06:38:53;5.43;;;2.70;;
20022;SDS011;10172;42.054;24.546;2024-03-25T06:41:18;4.10;;;1.40;;
20022;SDS011;10172;42.054;24.546;2024-03-25T06:43:44;2.20;;;1.17;;
20022;SDS011;10172;42.054;24.546;2024-03-25T06:46:09;1.95;;;1.02;;
20022;SDS011;10172;42.054;24.546;2024-03-25T06:48:35;2.00;;;1.27;;
20022;SDS011;10172;42.054;24.546;2024-03-25T06:51:01;3.58;;;0.95;;
20022;SDS011;10172;42.054;24.546;2024-03-25T06:53:30;3.17;;;1.58;;
20022;SDS011;10172;42.054;24.546;2024-03-25T06:55:56;2.63;;;1.95;;
20022;SDS011;10172;42.054;24.546;2024-03-25T06:58:23;2.83;;;1.90;;
20022;SDS011;10172;42.054;24.546;2024-03-25T07:00:50;3.20;;;1.95;;
20022;SDS011;10172;42.054;24.546;2024-03-25T07:03:16;3.85;;;2.20;;
20022;SDS011;10172;42.054;24.546;2024-03-25T07:05:46;3.90;;;1.83;;
20022;SDS011;10172;42.054;24.546;2024-03-25T07:08:12;3.92;;;2.38;;
20022;SDS011;10172;42.054;24.546;2024-03-25T07:10:38;3.33;;;2.00;;
20022;SDS011;10172;42.054;24.546;2024-03-25T07:13:04;4.40;;;2.25;;
20022;SDS011;10172;42.054;24.546;2024-03-25T07:15:30;2.30;;;1.33;;
20022;SDS011;10172;42.054;24.546;2024-03-25T07:17:56;3.50;;;2.22;;
20022;SDS011;10172;42.054;24.546;2024-03-25T07:20:22;5.30;;;2.55;;
20022;SDS011;10172;42.054;24.546;2024-03-25T07:22:48;4.35;;;2.35;;
20022;SDS011;10172;42.054;24.546;2024-03-25T07:25:13;6.18;;;2.92;;
20022;SDS011;10172;42.054;24.546;2024-03-25T07:27:39;3.72;;;2.60;;
20022;SDS011;10172;42.054;24.546;2024-03-25T07:30:05;3.00;;;1.83;;
20022;SDS011;10172;42.054;24.546;2024-03-25T07:32:32;4.80;;;3.03;;
20022;SDS011;10172;42.054;24.546;2024-03-25T07:34:58;3.10;;;2.00;;
20022;SDS011;10172;42.054;24.546;2024-03-25T07:37:23;3.33;;;2.25;;
20022;SDS011;10172;42.054;24.546;2024-03-25T07:39:48;2.85;;;1.60;;
20022;SDS011;10172;42.054;24.546;2024-03-25T07:42:14;5.65;;;2.90;;
20022;SDS011;10172;42.054;24.546;2024-03-25T07:44:39;5.10;;;2.80;;
20022;SDS011;10172;42.054;24.546;2024-03-25T07:47:05;5.63;;;3.28;;
20022;SDS011;10172;42.054;24.546;2024-03-25T07:49:31;4.05;;;1.98;;
20022;SDS011;10172;42.054;24.546;2024-03-25T07:51:58;6.75;;;2.95;;
20022;SDS011;10172;42.054;24.546;2024-03-25T07:54:24;7.20;;;3.30;;
20022;SDS011;10172;42.054;24.546;2024-03-25T07:56:51;5.57;;;2.95;;
20022;SDS011;10172;42.054;24.546;2024-03-25T07:59:17;4.53;;;2.60;;
20022;SDS011;10172;42.054;24.546;2024-03-25T08:01:43;3.33;;;1.98;;
20022;SDS011;10172;42.054;24.546;2024-03-25T08:04:08;3.45;;;1.90;;
20022;SDS011;10172;42.054;24.546;2024-03-25T08:06:34;4.88;;;2.60;;
20022;SDS011;10172;42.054;24.546;2024-03-25T08:08:59;4.80;;;2.40;;
20022;SDS011;10172;42.054;24.546;2024-03-25T08:11:24;7.95;;;2.55;;
20022;SDS011;10172;42.054;24.546;2024-03-25T08:13:50;1.80;;;1.17;;
20022;SDS011;10172;42.054;24.546;2024-03-25T08:16:15;5.03;;;2.40;;
20022;SDS011;10172;42.054;24.546;2024-03-25T08:18:40;6.80;;;2.33;;
20022;SDS011;10172;42.054;24.546;2024-03-25T08:21:06;3.47;;;1.58;;
20022;SDS011;10172;42.054;24.546;2024-03-25T08:23:31;4.38;;;1.83;;
20022;SDS011;10172;42.054;24.546;2024-03-25T08:25:57;5.85;;;3.13;;
20022;SDS011;10172;42.054;24.546;2024-03-25T08:28:22;4.13;;;2.03;;
20022;SDS011;10172;42.054;24.546;2024-03-25T08:30:47;6.07;;;2.63;;
20022;SDS011;10172;42.054;24.546;2024-03-25T08:33:13;5.00;;;3.05;;
20022;SDS011;10172;42.054;24.546;2024-03-25T08:35:38;9.45;;;3.67;;
20022;SDS011;10172;42.054;24.546;2024-03-25T08:38:03;2.58;;;1.13;;
20022;SDS011;10172;42.054;24.546;2024-03-25T08:40:29;8.40;;;2.40;;
20022;SDS011;10172;42.054;24.546;2024-03-25T08:42:54;3.28;;;1.40;;
20022;SDS011;10172;42.054;24.546;2024-03-25T08:45:20;2.85;;;1.45;;
20022;SDS011;10172;42.054;24.546;2024-03-25T08:47:45;2.75;;;1.08;;
20022;SDS011;10172;42.054;24.546;2024-03-25T08:50:10;3.78;;;1.73;;
20022;SDS011;10172;42.054;24.546;2024-03-25T08:52:36;3.55;;;2.00;;
20022;SDS011;10172;42.054;24.546;2024-03-25T08:55:01;5.97;;;2.65;;
20022;SDS011;10172;42.054;24.546;2024-03-25T08:57:26;3.08;;;1.67;;
20022;SDS011;10172;42.054;24.546;2024-03-25T08:59:52;3.65;;;1.60;;
20022;SDS011;10172;42.054;24.546;2024-03-25T09:02:17;4.30;;;2.03;;
20022;SDS011;10172;42.054;24.546;2024-03-25T09:04:42;2.33;;;1.60;;
20022;SDS011;10172;42.054;24.546;2024-03-25T09:07:08;2.13;;;1.27;;
20022;SDS011;10172;42.054;24.546;2024-03-25T09:09:33;1.85;;;1.17;;
20022;SDS011;10172;42.054;24.546;2024-03-25T09:12:17;5.50;;;2.67;;
20022;SDS011;10172;42.054;24.546;2024-03-25T09:14:43;4.60;;;2.63;;
20022;SDS011;10172;42.054;24.546;2024-03-25T09:17:08;5.30;;;3.03;;
20022;SDS011;10172;42.054;24.546;2024-03-25T09:19:33;5.45;;;2.38;;
20022;SDS011;10172;42.054;24.546;2024-03-25T09:21:59;2.15;;;1.15;;
20022;SDS011;10172;42.054;24.546;2024-03-25T09:24:24;6.30;;;2.60;;
20022;SDS011;10172;42.054;24.546;2024-03-25T09:26:50;3.40;;;1.63;;
20022;SDS011;10172;42.054;24.546;2024-03-25T09:29:15;2.58;;;1.83;;
20022;SDS011;10172;42.054;24.546;2024-03-25T09:31:41;4.35;;;2.85;;
20022;SDS011;10172;42.054;24.546;2024-03-25T09:34:06;2.70;;;1.50;;
20022;SDS011;10172;42.054;24.546;2024-03-25T09:36:31;3.03;;;1.42;;
20022;SDS011;10172;42.054;24.546;2024-03-25T09:38:57;2.85;;;1.42;;
20022;SDS011;10172;42.054;24.546;2024-03-25T09:41:22;2.78;;;1.25;;
20022;SDS011;10172;42.054;24.546;2024-03-25T09:43:48;4.28;;;2.08;;
20022;SDS011;10172;42.054;24.546;2024-03-25T09:46:23;2.38;;;1.02;;
20022;SDS011;10172;42.054;24.546;2024-03-25T09:48:49;6.30;;;2.72;;
20022;SDS011;10172;42.054;24.546;2024-03-25T09:51:17;5.25;;;2.05;;
20022;SDS011;10172;42.054;24.546;2024-03-25T09:53:43;3.95;;;1.88;;
20022;SDS011;10172;42.054;24.546;2024-03-25T09:56:08;2.13;;;1.65;;
20022;SDS011;10172;42.054;24.546;2024-03-25T09:58:35;3.65;;;2.15;;
20022;SDS011;10172;42.054;24.546;2024-03-25T10:01:01;3.72;;;1.88;;
20022;SDS011;10172;42.054;24.546;2024-03-25T10:03:27;7.68;;;3.53;;
20022;SDS011;10172;42.054;24.546;2024-03-25T10:05:52;8.35;;;3.55;;
20022;SDS011;10172;42.054;24.546;2024-03-25T10:08:21;2.20;;;1.05;;
20022;SDS011;10172;42.054;24.546;2024-03-25T10:10:46;3.97;;;2.78;;
20022;SDS011;10172;42.054;24.546;2024-03-25T10:13:12;3.38;;;2.20;;
20022;SDS011;10172;42.054;24.546;2024-03-25T10:15:37;1.23;;;0.80;;
20022;SDS011;10172;42.054;24.546;2024-03-25T10:18:02;2.53;;;1.00;;
20022;SDS011;10172;42.054;24.546;2024-03-25T10:20:28;1.85;;;0.85;;
20022;SDS011;10172;42.054;24.546;2024-03-25T10:22:53;2.92;;;1.13;;
20022;SDS011;10172;42.054;24.546;2024-03-25T10:25:22;2.78;;;1.38;;
20022;SDS011;10172;42.054;24.546;2024-03-25T10:30:24;2.65;;;1.48;;
20022;SDS011;10172;42.054;24.546;2024-03-25T10:33:02;2.53;;;1.65;;
20022;SDS011;10172;42.054;24.546;2024-03-25T10:35:29;3.13;;;1.60;;
20022;SDS011;10172;42.054;24.546;2024-03-25T10:38:00;2.95;;;1.70;;
20022;SDS011;10172;42.054;24.546;2024-03-25T10:40:28;4.18;;;2.08;;
20022;SDS011;10172;42.054;24.546;2024-03-25T10:42:56;2.67;;;1.45;;
20022;SDS011;10172;42.054;24.546;2024-03-25T10:45:27;1.42;;;0.82;;
20022;SDS011;10172;42.054;24.546;2024-03-25T10:47:56;4.43;;;1.17;;
20022;SDS011;10172;42.054;24.546;2024-03-25T10:50:24;4.05;;;1.95;;
20022;SDS011;10172;42.054;24.546;2024-03-25T10:52:53;1.80;;;1.13;;
20022;SDS011;10172;42.054;24.546;2024-03-25T10:55:19;2.33;;;1.30;;
20022;SDS011;10172;42.054;24.546;2024-03-25T10:57:47;1.48;;;0.90;;
20022;SDS011;10172;42.054;24.546;2024-03-25T11:00:14;1.60;;;0.57;;
20022;SDS011;10172;42.054;24.546;2024-03-25T11:02:43;2.78;;;1.27;;
20022;SDS011;10172;42.054;24.546;2024-03-25T11:05:09;3.75;;;1.50;;
20022;SDS011;10172;42.054;24.546;2024-03-25T11:07:37;4.00;;;1.65;;
20022;SDS011;10172;42.054;24.546;2024-03-25T11:10:04;2.13;;;1.52;;
20022;SDS011;10172;42.054;24.546;2024-03-25T11:12:35;2.03;;;0.82;;
20022;SDS011;10172;42.054;24.546;2024-03-25T11:15:02;3.13;;;1.15;;
20022;SDS011;10172;42.054;24.546;2024-03-25T11:17:29;2.03;;;1.10;;
20022;SDS011;10172;42.054;24.546;2024-03-25T11:19:54;0.90;;;0.70;;
20022;SDS011;10172;42.054;24.546;2024-03-25T11:22:32;3.78;;;1.42;;
20022;SDS011;10172;42.054;24.546;2024-03-25T11:24:57;4.43;;;1.83;;
20022;SDS011;10172;42.054;24.546;2024-03-25T11:27:31;3.05;;;1.88;;
20022;SDS011;10172;42.054;24.546;2024-03-25T11:29:57;3.33;;;1.42;;
20022;SDS011;10172;42.054;24.546;2024-03-25T11:32:22;1.10;;;1.00;;
20022;SDS011;10172;42.054;24.546;2024-03-25T11:34:52;3.13;;;1.58;;
20022;SDS011;10172;42.054;24.546;2024-03-25T11:37:17;5.25;;;2.38;;
20022;SDS011;10172;42.054;24.546;2024-03-25T11:39:43;5.80;;;3.03;;
20022;SDS011;10172;42.054;24.546;2024-03-25T11:42:08;3.13;;;1.42;;
20022;SDS011;10172;42.054;24.546;2024-03-25T11:44:37;2.15;;;1.17;;
20022;SDS011;10172;42.054;24.546;2024-03-25T11:47:05;3.63;;;2.03;;
20022;SDS011;10172;42.054;24.546;2024-03-25T11:49:36;5.88;;;2.95;;
20022;SDS011;10172;42.054;24.546;2024-03-25T11:52:03;3.58;;;2.25;;
20022;SDS011;10172;42.054;24.546;2024-03-25T11:54:32;3.70;;;2.20;;
20022;SDS011;10172;42.054;24.546;2024-03-25T11:56:57;3.95;;;2.33;;
20022;SDS011;10172;42.054;24.546;2024-03-25T11:59:23;4.80;;;4.00;;
20022;SDS011;10172;42.054;24.546;2024-03-25T12:01:50;5.18;;;2.65;;
20022;SDS011;10172;42.054;24.546;2024-03-25T12:04:16;4.40;;;2.25;;
20022;SDS011;10172;42.054;24.546;2024-03-25T12:06:43;3.92;;;1.60;;
20022;SDS011;10172;42.054;24.546;2024-03-25T12:09:10;3.08;;;2.40;;
20022;SDS011;10172;42.054;24.546;2024-03-25T12:11:54;3.65;;;1.35;;
20022;SDS011;10172;42.054;24.546;2024-03-25T12:14:21;2.50;;;1.60;;
20022;SDS011;10172;42.054;24.546;2024-03-25T12:16:52;3.28;;;2.53;;
20022;SDS011;10172;42.054;24.546;2024-03-25T12:19:19;2.50;;;1.52;;
20022;SDS011;10172;42.054;24.546;2024-03-25T12:21:44;3.92;;;2.33;;
20022;SDS011;10172;42.054;24.546;2024-03-25T12:24:13;2.97;;;1.90;;
20022;SDS011;10172;42.054;24.546;2024-03-25T12:26:39;3.38;;;2.22;;
20022;SDS011;10172;42.054;24.546;2024-03-25T12:29:05;5.35;;;2.10;;
20022;SDS011;10172;42.054;24.546;2024-03-25T12:31:31;3.55;;;2.42;;
20022;SDS011;10172;42.054;24.546;2024-03-25T12:33:56;3.17;;;2.20;;
20022;SDS011;10172;42.054;24.546;2024-03-25T12:36:21;3.88;;;2.20;;
20022;SDS011;10172;42.054;24.546;2024-03-25T12:38:56;4.30;;;2.00;;
20022;SDS011;10172;42.054;24.546;2024-03-25T12:41:22;3.38;;;2.17;;
20022;SDS011;10172;42.054;24.546;2024-03-25T12:43:49;3.40;;;1.67;;
20022;SDS011;10172;42.054;24.546;2024-03-25T12:46:15;4.20;;;2.33;;
20022;SDS011;10172;42.054;24.546;2024-03-25T12:48:41;4.55;;;2.75;;
20022;SDS011;10172;42.054;24.546;2024-03-25T12:51:12;5.53;;;2.40;;
20022;SDS011;10172;42.054;24.546;2024-03-25T12:53:39;2.50;;;1.50;;
20022;SDS011;10172;42.054;24.546;2024-03-25T12:56:04;4.25;;;1.80;;
20022;SDS011;10172;42.054;24.546;2024-03-25T12:58:30;5.38;;;1.77;;
20022;SDS011;10172;42.054;24.546;2024-03-25T13:00:56;5.00;;;2.25;;
20022;SDS011;10172;42.054;24.546;2024-03-25T13:03:21;3.33;;;1.80;;
20022;SDS011;10172;42.054;24.546;2024-03-25T13:05:47;4.20;;;1.88;;
20022;SDS011;10172;42.054;24.546;2024-03-25T13:08:12;9.38;;;2.22;;
20022;SDS011;10172;42.054;24.546;2024-03-25T13:10:38;6.18;;;1.65;;
20022;SDS011;10172;42.054;24.546;2024-03-25T13:13:03;3.20;;;1.25;;
20022;SDS011;10172;42.054;24.546;2024-03-25T13:15:30;2.33;;;1.00;;
20022;SDS011;10172;42.054;24.546;2024-03-25T13:17:56;4.80;;;2.17;;
20022;SDS011;10172;42.054;24.546;2024-03-25T13:20:21;6.32;;;1.70;;
20022;SDS011;10172;42.054;24.546;2024-03-25T13:22:48;3.45;;;1.80;;
20022;SDS011;10172;42.054;24.546;2024-03-25T13:25:14;5.05;;;1.70;;
20022;SDS011;10172;42.054;24.546;2024-03-25T13:27:40;3.83;;;2.25;;
20022;SDS011;10172;42.054;24.546;2024-03-25T13:30:05;5.00;;;2.38;;
20022;SDS011;10172;42.054;24.546;2024-03-25T13:32:31;13.30;;;5.70;;
20022;SDS011;10172;42.054;24.546;2024-03-25T13:34:57;5.00;;;2.00;;
20022;SDS011;10172;42.054;24.546;2024-03-25T13:37:22;7.00;;;3.03;;
20022;SDS011;10172;42.054;24.546;2024-03-25T13:39:48;4.63;;;2.65;;
20022;SDS011;10172;42.054;24.546;2024-03-25T13:42:15;4.03;;;2.40;;
20022;SDS011;10172;42.054;24.546;2024-03-25T13:44:40;4.60;;;2.20;;
20022;SDS011;10172;42.054;24.546;2024-03-25T13:47:06;6.45;;;3.10;;
20022;SDS011;10172;42.054;24.546;2024-03-25T13:49:33;13.13;;;5.93;;
20022;SDS011;10172;42.054;24.546;2024-03-25T13:51:59;4.95;;;2.65;;
20022;SDS011;10172;42.054;24.546;2024-03-25T13:54:25;2.90;;;1.77;;
20022;SDS011;10172;42.054;24.546;2024-03-25T13:56:51;4.93;;;2.25;;
20022;SDS011;10172;42.054;24.546;2024-03-25T13:59:17;5.13;;;2.88;;
20022;SDS011;10172;42.054;24.546;2024-03-25T14:01:42;1.58;;;0.93;;
20022;SDS011;10172;42.054;24.546;2024-03-25T14:04:08;1.63;;;0.75;;
20022;SDS011;10172;42.054;24.546;2024-03-25T14:06:33;2.00;;;1.08;;
20022;SDS011;10172;42.054;24.546;2024-03-25T14:09:01;1.13;;;0.80;;
20022;SDS011;10172;42.054;24.546;2024-03-25T14:11:29;3.03;;;1.95;;
20022;SDS011;10172;42.054;24.546;2024-03-25T14:13:55;4.63;;;2.67;;
20022;SDS011;10172;42.054;24.546;2024-03-25T14:16:20;1.92;;;1.10;;
20022;SDS011;10172;42.054;24.546;2024-03-25T14:18:46;1.40;;;1.02;;
20022;SDS011;10172;42.054;24.546;2024-03-25T14:21:11;2.35;;;1.60;;
20022;SDS011;10172;42.054;24.546;2024-03-25T14:23:36;4.40;;;2.75;;
20022;SDS011;10172;42.054;24.546;2024-03-25T14:26:02;7.30;;;3.50;;
20022;SDS011;10172;42.054;24.546;2024-03-25T14:28:27;3.10;;;1.52;;
20022;SDS011;10172;42.054;24.546;2024-03-25T14:30:53;2.88;;;2.17;;